Time;durP1;ratioP1;P1;durP2;ratioP2;P2;SDS_P1;SDS_P2;PMS_P1;PMS_P2;Temp;Humidity;BMP_temperature;BMP_pressure;BME280_temperature;BME280_humidity;BME280_pressure;Samples;Min_cycle;Max_cycle;Signal;HPM_P1;HPM_P2
2024/02/24 00:02:05;;;;;;;15.00;8.15;;;;;;;29.07;68.62;101226.31;5054226;28;66742;-31
2024/02/24 00:04:36;;;;;;;12.63;10.93;;;;;;;29.20;70.62;101231.78;5059537;28;69969;-34
2024/02/24 00:07:06;;;;;;;25.88;13.77;;;;;;;29.22;75.09;101234.28;5057416;28;65528;-35
2024/02/24 00:09:37;;;;;;;18.08;14.27;;;;;;;29.25;75.18;101240.09;5055631;28;70537;-33
2024/02/24 00:12:07;;;;;;;58.63;25.40;;;;;;;29.34;76.75;101238.91;5059597;28;66708;-31
2024/02/24 00:14:38;;;;;;;80.45;30.33;;;;;;;29.38;78.54;101236.63;5055293;28;70153;-32
2024/02/24 00:17:09;;;;;;;54.50;25.98;;;;;;;29.42;78.50;101245.16;5056068;28;66579;-32
2024/02/24 00:19:40;;;;;;;48.08;23.65;;;;;;;29.43;79.68;101246.84;5054795;28;69503;-31
2024/02/24 00:22:11;;;;;;;47.90;24.80;;;;;;;29.38;80.53;101240.16;5050025;28;65840;-31
2024/02/24 00:24:41;;;;;;;47.80;24.88;;;;;;;29.48;80.59;101249.78;5056183;28;70762;-31
2024/02/24 00:27:12;;;;;;;52.05;26.00;;;;;;;29.49;81.26;101244.16;5056473;28;66534;-31
2024/02/24 00:29:42;;;;;;;61.97;27.40;;;;;;;29.53;82.89;101247.28;5047608;28;69621;-33
2024/02/24 00:32:13;;;;;;;63.58;28.90;;;;;;;29.56;82.15;101244.19;5047013;28;65913;-31
2024/02/24 00:34:44;;;;;;;66.57;29.35;;;;;;;29.40;83.86;101213.78;5050055;28;69586;-32
2024/02/24 00:37:14;;;;;;;56.05;29.08;;;;;;;29.59;84.33;101244.63;5059288;28;65697;-31
2024/02/24 00:39:45;;;;;;;57.05;28.15;;;;;;;29.65;82.98;101245.72;5059542;28;70027;-32
2024/02/24 00:42:15;;;;;;;60.03;27.90;;;;;;;29.69;85.53;101256.94;5059720;28;65295;-31
2024/02/24 00:44:46;;;;;;;54.83;26.92;;;;;;;29.72;85.00;101259.25;5049138;28;70104;-31
2024/02/24 00:47:16;;;;;;;56.20;27.27;;;;;;;29.75;85.06;101262.38;5049960;28;66445;-32
2024/02/24 00:49:47;;;;;;;49.92;27.30;;;;;;;29.80;85.84;101256.34;5059159;28;70205;-33
2024/02/24 00:52:18;;;;;;;48.95;26.20;;;;;;;29.81;84.25;101252.59;5053356;28;65913;-31
2024/02/24 00:54:48;;;;;;;44.72;25.85;;;;;;;29.83;85.85;101270.28;5052135;28;69550;-32
2024/02/24 00:57:18;;;;;;;39.97;24.73;;;;;;;29.86;85.65;101270.94;5050486;28;65790;-31
2024/02/24 00:59:49;;;;;;;39.22;23.15;;;;;;;29.87;85.24;101265.34;5050979;28;69056;-32
2024/02/24 01:02:19;;;;;;;40.90;24.05;;;;;;;29.89;85.59;101275.94;5053559;28;65992;-31
2024/02/24 01:04:52;;;;;;;38.10;24.08;;;;;;;29.89;83.54;101270.53;5048931;28;69874;-32
2024/02/24 01:07:22;;;;;;;38.88;23.60;;;;;;;29.96;83.83;101274.91;5042774;28;66460;-31
2024/02/24 01:09:53;;;;;;;31.15;24.10;;;;;;;29.98;85.00;101278.25;5052574;28;70223;-32
2024/02/24 01:12:23;;;;;;;33.25;22.98;;;;;;;30.01;82.36;101287.84;5051239;28;65625;-32
2024/02/24 01:14:54;;;;;;;29.95;21.45;;;;;;;30.04;82.12;101282.00;5048097;28;69859;-32
2024/02/24 01:17:27;;;;;;;29.35;20.52;;;;;;;30.06;82.11;101285.31;5046660;28;66908;-31
2024/02/24 01:20:00;;;;;;;27.33;21.77;;;;;;;30.08;82.10;101282.44;5051801;28;70554;-32
2024/02/24 01:22:31;;;;;;;36.72;22.80;;;;;;;30.09;82.04;101282.25;5048220;28;66467;-31
2024/02/24 01:25:01;;;;;;;31.77;23.75;;;;;;;30.11;82.90;101288.25;5055389;28;69600;-32
2024/02/24 01:27:32;;;;;;;33.35;22.98;;;;;;;30.12;83.72;101289.94;5055213;28;66459;-32
2024/02/24 01:30:02;;;;;;;31.80;21.08;;;;;;;30.00;83.83;101275.34;5049349;28;69934;-31
2024/02/24 01:32:33;;;;;;;35.15;20.38;;;;;;;30.16;84.23;101296.59;5049834;28;66777;-31
2024/02/24 01:35:03;;;;;;;29.33;19.60;;;;;;;30.22;84.55;101306.63;5053219;28;69244;-31
2024/02/24 01:37:35;;;;;;;31.35;19.88;;;;;;;30.21;83.30;101304.94;5046499;28;66549;-30
2024/02/24 01:40:06;;;;;;;23.45;16.00;;;;;;;30.18;84.74;101302.63;5051885;28;71694;-31
2024/02/24 01:42:37;;;;;;;19.83;13.15;;;;;;;30.23;82.41;101302.88;5048955;28;66125;-31
2024/02/24 01:45:07;;;;;;;20.42;14.68;;;;;;;30.24;81.64;101312.66;5047268;28;69273;-30
2024/02/24 01:47:38;;;;;;;15.52;12.02;;;;;;;30.21;81.80;101315.75;5052128;28;66035;-31
2024/02/24 01:50:10;;;;;;;20.42;12.52;;;;;;;30.26;81.77;101318.72;5058613;28;69541;-31
2024/02/24 01:52:43;;;;;;;16.30;12.57;;;;;;;30.32;80.17;101316.22;5048137;28;66579;-31
2024/02/24 01:55:14;;;;;;;15.32;12.40;;;;;;;30.35;80.76;101321.22;5048446;28;70215;-30
2024/02/24 01:57:45;;;;;;;19.23;12.18;;;;;;;30.39;80.92;101327.88;5044593;28;66429;-31
2024/02/24 02:00:15;;;;;;;13.10;10.63;;;;;;;30.36;80.01;101322.88;5047164;28;71381;-31
2024/02/24 02:02:47;;;;;;;16.75;11.43;;;;;;;30.44;80.00;101328.09;5055103;28;65337;-31
2024/02/24 02:05:18;;;;;;;17.70;10.80;;;;;;;30.47;79.23;101330.38;5054194;28;70373;-31
2024/02/24 02:07:48;;;;;;;15.55;10.23;;;;;;;30.49;78.90;101315.59;5064076;28;66009;-31
2024/02/24 02:10:19;;;;;;;12.70;9.75;;;;;;;30.54;78.67;101325.00;5049521;28;70522;-30
2024/02/24 02:12:49;;;;;;;17.90;10.27;;;;;;;30.57;78.42;101325.41;5043286;28;66187;-30
2024/02/24 02:15:20;;;;;;;11.23;10.07;;;;;;;30.59;78.26;101323.34;5044061;28;71154;-31
2024/02/24 02:17:51;;;;;;;11.90;9.40;;;;;;;30.61;78.30;101321.22;5044430;28;66491;-31
2024/02/24 02:20:22;;;;;;;15.73;10.27;;;;;;;30.59;78.46;101312.50;5044831;28;69309;-30
2024/02/24 02:22:53;;;;;;;11.17;10.07;;;;;;;30.68;78.47;101324.78;5052371;28;66319;-32
2024/02/24 02:25:23;;;;;;;11.15;9.38;;;;;;;30.67;78.04;101315.00;5045458;28;69380;-30
2024/02/24 02:27:54;;;;;;;16.45;9.70;;;;;;;30.62;78.11;101294.97;5053391;28;67050;-30
2024/02/24 02:30:24;;;;;;;10.35;9.32;;;;;;;30.76;77.97;101312.06;5051164;28;70464;-32
2024/02/24 02:32:55;;;;;;;13.65;9.93;;;;;;;30.80;77.81;101324.19;5047533;28;66651;-31
2024/02/24 02:35:26;;;;;;;11.02;9.93;;;;;;;30.77;78.03;101314.56;5049141;28;70052;-30
2024/02/24 02:37:57;;;;;;;12.23;10.50;;;;;;;30.83;77.48;101315.63;5061209;28;65929;-31
2024/02/24 02:40:27;;;;;;;15.70;10.25;;;;;;;30.88;77.81;101321.25;5053798;28;70164;-30
2024/02/24 02:42:58;;;;;;;11.73;9.88;;;;;;;30.91;77.55;101326.25;5054398;28;66893;-32
2024/02/24 02:45:28;;;;;;;19.60;10.30;;;;;;;30.93;77.78;101307.94;5048965;28;69869;-30
2024/02/24 02:47:59;;;;;;;11.23;9.80;;;;;;;30.97;77.23;101314.56;5053934;28;65767;-31
2024/02/24 02:50:30;;;;;;;13.50;10.15;;;;;;;31.01;77.14;101313.13;5046445;28;69816;-31
2024/02/24 02:53:00;;;;;;;10.40;9.60;;;;;;;31.03;77.04;101313.72;5059934;28;65629;-31
2024/02/24 02:55:30;;;;;;;10.40;9.43;;;;;;;31.07;77.30;101316.88;5045708;28;69614;-32
2024/02/24 02:58:01;;;;;;;13.10;9.60;;;;;;;31.10;77.10;101309.13;5048694;27;66307;-30
2024/02/24 03:00:31;;;;;;;12.38;9.65;;;;;;;31.09;76.94;101307.47;5049127;28;70294;-32
2024/02/24 03:03:02;;;;;;;10.65;9.40;;;;;;;31.17;76.52;101306.41;5057728;28;66589;-30
2024/02/24 03:05:32;;;;;;;11.00;9.27;;;;;;;31.19;76.86;101300.78;5050238;28;69926;-30
2024/02/24 03:08:03;;;;;;;10.15;9.45;;;;;;;31.22;76.59;101294.94;5055653;28;66188;-32
2024/02/24 03:10:34;;;;;;;9.50;8.85;;;;;;;31.27;76.61;101300.56;5047796;28;69761;-31
2024/02/24 03:13:04;;;;;;;11.07;10.15;;;;;;;31.28;76.42;101292.19;5055883;28;66258;-30
2024/02/24 03:15:35;;;;;;;14.82;10.35;;;;;;;31.32;76.83;101289.91;5059672;28;70403;-32
2024/02/24 03:18:06;;;;;;;11.80;10.02;;;;;;;31.33;76.42;101292.38;5044232;28;67661;-30
2024/02/24 03:20:37;;;;;;;16.02;11.07;;;;;;;31.30;77.25;101292.00;5061971;28;69635;-32
2024/02/24 03:23:08;;;;;;;18.95;10.60;;;;;;;31.29;77.76;101290.34;5054856;28;67105;-31
2024/02/24 03:25:39;;;;;;;14.40;10.82;;;;;;;31.33;77.71;101288.84;5047517;28;69277;-31
2024/02/24 03:28:09;;;;;;;14.32;10.02;;;;;;;31.34;77.43;101293.22;5057957;28;65475;-31
2024/02/24 03:30:40;;;;;;;16.85;10.48;;;;;;;31.38;77.92;101294.50;5056309;28;70529;-34
2024/02/24 03:33:12;;;;;;;17.15;10.30;;;;;;;31.35;77.36;101294.91;5048175;28;66625;-31
2024/02/24 03:35:43;;;;;;;15.15;10.73;;;;;;;31.44;77.13;101290.09;5059399;28;70599;-31
2024/02/24 03:38:13;;;;;;;13.00;10.38;;;;;;;31.45;77.62;101279.03;5055765;28;65998;-32
2024/02/24 03:40:44;;;;;;;16.80;10.00;;;;;;;31.47;77.49;101276.94;5050875;28;69371;-31
2024/02/24 03:43:14;;;;;;;11.32;9.70;;;;;;;31.50;77.52;101279.22;5043707;28;66251;-31
2024/02/24 03:45:45;;;;;;;13.35;10.02;;;;;;;31.54;77.84;101280.47;5059707;28;68861;-31
2024/02/24 03:48:15;;;;;;;10.75;9.73;;;;;;;31.56;77.51;101274.81;5060778;28;66345;-31
2024/02/24 03:50:47;;;;;;;10.90;10.00;;;;;;;31.60;77.13;101273.34;5046007;28;70864;-32
2024/02/24 03:53:17;;;;;;;13.13;9.50;;;;;;;31.60;77.50;101266.03;5073749;28;66092;-31
2024/02/24 03:55:49;;;;;;;16.75;9.88;;;;;;;31.64;77.14;101260.19;5059270;28;69524;-32
2024/02/24 03:58:21;;;;;;;10.93;10.02;;;;;;;31.68;77.41;101247.84;5059788;28;66809;-31
2024/02/24 04:00:52;;;;;;;13.40;10.10;;;;;;;31.69;77.38;101235.97;5059045;28;69670;-31
2024/02/24 04:03:22;;;;;;;9.77;8.93;;;;;;;31.70;77.71;101240.31;5053332;28;66322;-34
2024/02/24 04:05:53;;;;;;;15.43;9.38;;;;;;;31.74;76.86;101236.97;5034232;28;69329;-32
2024/02/24 04:08:25;;;;;;;10.35;9.40;;;;;;;31.79;76.82;101222.75;5024785;28;65178;-31
2024/02/24 04:10:55;;;;;;;10.88;9.45;;;;;;;31.77;77.03;101222.16;5049264;28;70035;-31
2024/02/24 04:13:26;;;;;;;13.68;9.57;;;;;;;31.78;76.73;101219.19;5052468;28;66091;-32
2024/02/24 04:15:57;;;;;;;10.10;9.20;;;;;;;31.82;76.88;101211.47;5045251;28;70147;-31
2024/02/24 04:18:27;;;;;;;10.25;9.20;;;;;;;31.85;76.66;101216.47;5054087;28;65214;-32
2024/02/24 04:20:58;;;;;;;10.35;9.50;;;;;;;31.90;76.35;101208.50;5056129;28;70146;-32
2024/02/24 04:23:29;;;;;;;10.35;9.40;;;;;;;31.92;76.96;101211.84;5059690;28;66315;-33
2024/02/24 04:25:59;;;;;;;10.25;9.43;;;;;;;31.97;76.80;101212.00;5044251;28;69926;-32
2024/02/24 04:28:30;;;;;;;13.52;9.38;;;;;;;31.95;77.11;101195.09;5042864;28;66269;-32
2024/02/24 04:31:00;;;;;;;22.48;10.05;;;;;;;32.02;77.06;101203.22;5047931;28;70462;-32
2024/02/24 04:33:30;;;;;;;14.73;9.73;;;;;;;32.05;76.73;101192.75;5049819;28;66546;-32
2024/02/24 04:36:04;;;;;;;17.15;10.10;;;;;;;32.09;76.87;101195.00;5065401;28;70048;-31
2024/02/24 04:38:35;;;;;;;11.05;9.95;;;;;;;32.10;77.07;101177.69;5047116;28;66075;-35
2024/02/24 04:41:05;;;;;;;17.85;11.23;;;;;;;32.13;77.73;101183.50;5053181;28;69172;-32
2024/02/24 04:43:36;;;;;;;12.13;10.77;;;;;;;32.14;77.65;101176.19;5055875;28;66836;-31
2024/02/24 04:46:07;;;;;;;11.32;10.15;;;;;;;32.16;77.73;101166.78;5057281;28;70010;-34
2024/02/24 04:48:37;;;;;;;14.25;10.77;;;;;;;32.18;77.23;101174.69;5058344;28;66595;-31
2024/02/24 04:51:08;;;;;;;11.35;10.23;;;;;;;32.21;77.03;101163.41;5044446;28;70262;-31
2024/02/24 04:53:39;;;;;;;12.88;9.55;;;;;;;32.23;76.50;101172.13;5061180;28;65258;-31
2024/02/24 04:56:15;;;;;;;14.15;10.65;;;;;;;32.30;76.10;101162.06;5056296;28;70222;-31
2024/02/24 04:58:45;;;;;;;11.05;10.07;;;;;;;32.29;76.17;101160.41;5054405;28;66327;-33
2024/02/24 05:01:19;;;;;;;18.15;10.27;;;;;;;32.28;76.74;101153.28;5057631;28;70289;-32
2024/02/24 05:03:49;;;;;;;11.73;10.57;;;;;;;32.35;76.29;101148.66;5058162;28;66207;-31
2024/02/24 05:06:45;;;;;;;16.67;10.45;;;;;;;32.42;76.52;101148.56;5057928;28;70224;-31
2024/02/24 05:09:15;;;;;;;19.33;11.25;;;;;;;32.42;76.38;101143.97;5059249;28;65519;-31
2024/02/24 05:11:46;;;;;;;12.73;10.80;;;;;;;32.42;76.90;101138.53;5060720;28;69513;-31
2024/02/24 05:14:18;;;;;;;16.10;10.37;;;;;;;32.44;76.62;101131.00;5045899;28;66411;-31
2024/02/24 05:16:48;;;;;;;13.90;10.05;;;;;;;32.49;76.47;101142.03;5043717;28;69778;-32
2024/02/24 05:19:19;;;;;;;11.30;10.38;;;;;;;32.55;76.32;101131.34;5058191;28;66637;-31
2024/02/24 05:21:50;;;;;;;16.67;9.68;;;;;;;32.44;76.54;101101.13;5055979;28;70107;-31
2024/02/24 05:24:21;;;;;;;17.50;10.93;;;;;;;32.55;74.55;101118.59;5054980;28;66311;-32
2024/02/24 05:26:51;;;;;;;13.30;9.73;;;;;;;32.46;72.72;101112.63;5060460;28;70104;-31
2024/02/24 05:29:22;;;;;;;10.68;9.55;;;;;;;32.46;71.29;101112.63;5061414;28;65557;-32
2024/02/24 05:31:52;;;;;;;12.80;9.18;;;;;;;32.39;69.03;101106.41;5060397;28;70184;-30
2024/02/24 05:34:23;;;;;;;18.90;9.23;;;;;;;32.32;67.22;101102.94;5044594;28;66345;-31
2024/02/24 05:36:54;;;;;;;17.25;8.45;;;;;;;32.37;67.83;101097.66;5053011;28;70605;-31
2024/02/24 05:39:25;;;;;;;9.00;8.37;;;;;;;32.26;65.05;101092.97;5049219;28;66219;-31
2024/02/24 05:41:56;;;;;;;17.48;8.70;;;;;;;32.27;65.16;101081.91;5050259;28;70575;-31
2024/02/24 05:44:26;;;;;;;17.02;7.72;;;;;;;32.22;64.57;101078.19;5052426;27;65256;-31
2024/02/24 05:46:58;;;;;;;16.05;7.78;;;;;;;32.20;63.46;101064.84;5049466;28;69649;-31
2024/02/24 05:49:28;;;;;;;11.30;8.07;;;;;;;32.16;62.88;101069.06;5048795;28;66063;-31
2024/02/24 05:51:59;;;;;;;13.88;7.97;;;;;;;32.16;63.15;101060.94;5047621;28;70869;-32
2024/02/24 05:54:29;;;;;;;15.10;7.35;;;;;;;32.13;61.99;101057.84;5051463;28;64978;-31
2024/02/24 05:57:04;;;;;;;17.70;7.47;;;;;;;32.10;61.57;101055.56;5052954;28;71730;-31
2024/02/24 05:59:35;;;;;;;8.50;7.38;;;;;;;32.08;62.19;101042.22;5043197;28;66270;-30
2024/02/24 06:02:06;;;;;;;11.03;7.50;;;;;;;32.10;61.15;101036.59;5056489;28;69764;-32
2024/02/24 06:04:38;;;;;;;10.20;7.05;;;;;;;32.09;60.86;101040.31;5053302;28;65577;-31
2024/02/24 06:07:09;;;;;;;13.07;6.93;;;;;;;32.08;61.06;101044.09;5059076;28;70197;-31
2024/02/24 06:09:39;;;;;;;7.07;6.38;;;;;;;31.99;60.33;101041.69;5043663;28;66491;-31
2024/02/24 06:12:09;;;;;;;9.10;6.15;;;;;;;32.03;59.68;101042.88;5057345;28;70436;-32
2024/02/24 06:14:40;;;;;;;7.18;6.07;;;;;;;32.01;60.07;101031.44;5042772;28;66791;-31
2024/02/24 06:17:11;;;;;;;11.70;5.72;;;;;;;31.96;59.46;101031.28;5042610;28;70116;-31
2024/02/24 06:19:42;;;;;;;8.40;6.15;;;;;;;32.00;58.85;101027.06;5056423;28;66659;-31
2024/02/24 06:22:12;;;;;;;10.02;6.05;;;;;;;32.00;59.37;101021.63;5042196;28;70241;-33
2024/02/24 06:24:43;;;;;;;16.43;6.07;;;;;;;32.02;59.03;101018.69;5043504;28;66235;-31
2024/02/24 06:27:14;;;;;;;11.75;6.03;;;;;;;32.01;58.82;101017.88;5042973;28;70118;-32
2024/02/24 06:29:44;;;;;;;12.30;5.43;;;;;;;32.06;59.03;101019.91;5041927;28;65882;-32
2024/02/24 06:32:15;;;;;;;6.40;5.75;;;;;;;31.98;57.76;101021.03;5043580;28;70001;-32
2024/02/24 06:34:45;;;;;;;6.07;5.47;;;;;;;32.06;58.68;101006.34;5042775;28;66515;-31
2024/02/24 06:37:16;;;;;;;6.07;5.50;;;;;;;32.02;57.93;101008.69;5041945;28;72027;-32
2024/02/24 06:39:47;;;;;;;9.93;5.45;;;;;;;31.99;57.73;101003.69;5046041;28;66199;-32
2024/02/24 06:42:17;;;;;;;6.38;5.75;;;;;;;31.97;58.65;101005.81;5055601;28;70418;-31
2024/02/24 06:44:48;;;;;;;5.47;4.97;;;;;;;31.98;57.77;101001.19;5049670;28;67289;-32
2024/02/24 06:47:18;;;;;;;5.40;4.93;;;;;;;31.96;57.04;100987.88;5048796;28;69568;-32
2024/02/24 06:49:57;;;;;;;8.05;5.35;;;;;;;31.96;57.12;100992.47;5055158;28;66772;-30
2024/02/24 06:52:28;;;;;;;5.50;5.00;;;;;;;32.05;57.58;100986.50;5055657;28;70072;-31
2024/02/24 06:55:00;;;;;;;5.93;4.97;;;;;;;31.96;57.17;100977.03;5062698;28;65568;-32
2024/02/24 06:57:30;;;;;;;5.22;4.82;;;;;;;31.97;56.86;100973.25;5050925;28;70245;-32
2024/02/24 07:00:01;;;;;;;5.75;5.35;;;;;;;31.95;57.06;100975.34;5055810;28;65560;-31
2024/02/24 07:02:31;;;;;;;8.77;4.93;;;;;;;31.99;56.36;100960.28;5049154;28;69375;-31
2024/02/24 07:05:03;;;;;;;5.53;5.10;;;;;;;31.87;55.92;100951.19;5056430;28;66325;-31
2024/02/24 07:07:34;;;;;;;5.93;4.95;;;;;;;31.98;56.62;100950.50;5058420;28;70190;-32
2024/02/24 07:10:06;;;;;;;4.95;4.55;;;;;;;31.95;55.91;100950.94;5048373;28;64832;-32
2024/02/24 07:12:36;;;;;;;4.93;4.53;;;;;;;32.01;56.18;100946.47;5046537;28;70094;-34
2024/02/24 07:15:12;;;;;;;6.70;4.30;;;;;;;31.94;55.50;100930.28;5050543;28;67011;-31
2024/02/24 07:17:43;;;;;;;5.70;4.95;;;;;;;31.93;57.41;100908.78;5061620;28;70440;-32
2024/02/24 07:20:14;;;;;;;6.20;5.80;;;;;;;32.14;59.77;100934.66;5060181;28;65963;-32
2024/02/24 07:22:48;;;;;;;8.48;6.97;;;;;;;32.19;61.51;100927.47;5058706;28;69185;-33
2024/02/24 07:25:19;;;;;;;8.07;6.75;;;;;;;32.25;62.42;100926.56;5052743;28;66468;-33
2024/02/24 07:27:49;;;;;;;9.65;6.50;;;;;;;32.29;62.46;100916.09;5046422;28;70170;-32
2024/02/24 07:30:20;;;;;;;7.03;6.03;;;;;;;32.36;61.57;100919.53;5058910;28;66383;-34
2024/02/24 07:32:50;;;;;;;10.18;6.32;;;;;;;32.37;60.91;100929.31;5051195;28;70442;-32
2024/02/24 07:35:21;;;;;;;11.55;6.50;;;;;;;32.35;59.60;100919.78;5061211;28;66528;-31
2024/02/24 07:37:51;;;;;;;6.43;5.90;;;;;;;32.37;59.04;100907.59;5058787;28;69397;-32
2024/02/24 07:40:22;;;;;;;6.72;5.43;;;;;;;32.43;58.59;100909.44;5048443;27;66080;-33
2024/02/24 07:42:54;;;;;;;6.38;5.05;;;;;;;32.39;58.21;100908.22;5054169;28;70072;-32
2024/02/24 07:45:27;;;;;;;5.80;5.25;;;;;;;32.38;57.44;100892.16;5043582;28;66274;-36
2024/02/24 07:47:58;;;;;;;7.45;4.80;;;;;;;32.44;57.16;100891.25;5054931;28;70059;-37
2024/02/24 07:50:29;;;;;;;5.35;4.95;;;;;;;32.51;56.50;100902.03;5055250;27;66583;-33
2024/02/24 07:52:59;;;;;;;6.60;4.25;;;;;;;32.49;56.49;100897.66;5048539;28;70179;-32
2024/02/24 07:55:30;;;;;;;8.07;4.60;;;;;;;32.52;56.60;100882.81;5048604;28;66259;-32
2024/02/24 07:58:01;;;;;;;;;;;;;;;32.51;54.11;100885.72;5040552;28;69508;-31
2024/02/24 08:00:31;;;;;;;4.65;4.25;;;;;;;32.58;55.52;100887.31;5056294;28;66914;-31
2024/02/24 08:03:02;;;;;;;5.90;4.03;;;;;;;32.60;56.07;100885.19;5059964;28;70363;-32
2024/02/24 08:05:32;;;;;;;4.30;3.90;;;;;;;32.66;54.98;100894.28;5049709;28;66657;-35
2024/02/24 08:08:03;;;;;;;4.10;3.78;;;;;;;32.72;55.54;100893.34;5059407;28;70044;-32
2024/02/24 08:10:33;;;;;;;3.92;3.63;;;;;;;32.68;54.90;100892.16;5049046;28;66090;-33
2024/02/24 08:13:04;;;;;;;3.65;3.35;;;;;;;32.79;55.10;100891.38;5065681;28;70104;-32
2024/02/24 08:15:34;;;;;;;3.67;3.40;;;;;;;32.71;55.34;100869.97;5044617;28;65014;-32
2024/02/24 08:18:05;;;;;;;4.22;3.47;;;;;;;32.78;54.89;100887.00;5045011;28;70161;-34
2024/02/24 08:20:36;;;;;;;4.33;3.07;;;;;;;32.81;54.75;100881.09;5055546;27;65803;-34
2024/02/24 08:23:06;;;;;;;3.80;3.08;;;;;;;32.92;55.16;100885.72;5059069;28;70284;-34
2024/02/24 08:25:37;;;;;;;3.47;3.10;;;;;;;32.89;54.65;100883.47;5063946;28;67002;-33
2024/02/24 08:28:08;;;;;;;3.20;2.93;;;;;;;32.92;54.15;100877.56;5052105;28;70661;-32
2024/02/24 08:30:39;;;;;;;3.00;2.75;;;;;;;33.08;54.53;100877.97;5051804;28;65657;-32
2024/02/24 08:33:09;;;;;;;4.70;3.50;;;;;;;33.07;53.97;100885.31;5045701;28;69260;-32
2024/02/24 08:35:40;;;;;;;2.92;2.67;;;;;;;33.15;54.19;100876.81;5048504;28;65885;-31
2024/02/24 08:38:11;;;;;;;4.55;2.97;;;;;;;33.11;54.09;100870.16;5045712;28;70028;-33
2024/02/24 08:40:41;;;;;;;2.80;2.55;;;;;;;33.19;53.90;100870.88;5049935;28;66363;-32
2024/02/24 08:43:12;;;;;;;2.85;2.30;;;;;;;33.24;53.83;100863.69;5054934;28;70499;-32
2024/02/24 08:45:43;;;;;;;6.60;3.28;;;;;;;33.30;53.52;100870.88;5050403;28;66045;-33
2024/02/24 08:48:13;;;;;;;6.07;2.92;;;;;;;33.34;53.07;100863.88;5042436;28;69874;-32
2024/02/24 08:50:44;;;;;;;3.58;2.70;;;;;;;33.41;53.84;100862.97;5053762;28;66292;-33
2024/02/24 08:53:15;;;;;;;3.40;2.50;;;;;;;33.44;52.57;100862.47;5050972;28;70196;-32
2024/02/24 08:55:45;;;;;;;3.13;2.22;;;;;;;33.46;52.91;100860.31;5053654;28;65716;-32
2024/02/24 08:58:17;;;;;;;3.38;2.90;;;;;;;33.54;52.96;100873.59;5052105;28;70246;-33
2024/02/24 09:00:48;;;;;;;2.65;2.45;;;;;;;33.51;52.48;100863.16;5040611;28;66562;-32
2024/02/24 09:03:19;;;;;;;3.05;2.45;;;;;;;33.62;52.83;100867.78;5053136;28;70453;-31
2024/02/24 09:05:52;;;;;;;2.30;2.10;;;;;;;33.71;53.20;100870.97;5014346;28;65335;-30
2024/02/24 09:08:23;;;;;;;4.63;2.53;;;;;;;33.70;52.89;100867.41;5045038;28;69470;-32
2024/02/24 09:10:54;;;;;;;14.05;2.60;;;;;;;33.72;53.83;100869.91;5042533;28;66347;-32
2024/02/24 09:13:24;;;;;;;7.95;2.70;;;;;;;33.86;54.94;100868.56;5048871;28;70095;-31
2024/02/24 09:15:54;;;;;;;5.90;2.75;;;;;;;33.83;54.59;100865.50;5046831;28;66629;-31
2024/02/24 09:18:26;;;;;;;12.00;3.00;;;;;;;33.92;55.54;100872.22;5041606;28;70378;-34
2024/02/24 09:20:57;;;;;;;18.02;4.60;;;;;;;34.12;57.83;100875.38;5055869;28;66210;-33
2024/02/24 09:23:27;;;;;;;19.10;4.18;;;;;;;34.27;58.47;100866.69;5049120;28;70344;-31
2024/02/24 09:25:58;;;;;;;10.57;3.57;;;;;;;34.41;58.89;100872.66;5046096;28;66704;-32
2024/02/24 09:28:29;;;;;;;20.60;5.13;;;;;;;34.47;60.75;100883.38;5043809;28;70409;-31
2024/02/24 09:30:59;;;;;;;10.20;4.75;;;;;;;34.61;60.87;100877.66;5044366;28;65844;-32
2024/02/24 09:33:30;;;;;;;9.82;4.95;;;;;;;34.77;60.84;100876.00;5045554;28;70855;-33
2024/02/24 09:36:00;;;;;;;23.02;4.32;;;;;;;34.86;60.85;100877.25;5045532;28;67236;-33
2024/02/24 09:38:31;;;;;;;24.30;5.43;;;;;;;34.90;61.82;100876.50;5047716;28;69539;-33
2024/02/24 09:41:03;;;;;;;22.73;5.15;;;;;;;34.99;62.05;100874.19;5051422;28;64639;-35
2024/02/24 09:43:34;;;;;;;15.63;4.85;;;;;;;35.08;61.91;100883.66;5045710;28;70397;-34
2024/02/24 09:46:05;;;;;;;;;;;;;;;35.21;62.55;100884.38;5044919;28;66131;-34
2024/02/24 09:48:38;;;;;;;7.72;4.47;;;;;;;35.32;61.88;100878.78;5042922;28;70576;-34
2024/02/24 09:51:10;;;;;;;13.95;4.80;;;;;;;35.33;61.75;100885.91;5042706;28;65841;-33
2024/02/24 09:53:41;;;;;;;8.57;5.07;;;;;;;35.34;62.17;100886.75;5019979;28;69856;-34
2024/02/24 09:56:20;;;;;;;13.05;5.53;;;;;;;35.46;62.20;100895.63;5043157;28;66712;-35
2024/02/24 09:59:30;;;;;;;16.73;5.93;;;;;;;35.55;62.45;100893.28;5047412;28;69800;-33
2024/02/24 10:02:01;;;;;;;13.07;5.45;;;;;;;35.66;62.70;100895.13;5045392;28;66585;-33
2024/02/24 10:04:56;;;;;;;14.90;5.82;;;;;;;35.66;62.99;100899.75;5056043;28;70296;-33
2024/02/24 10:07:34;;;;;;;13.07;5.53;;;;;;;35.77;63.13;100891.47;5052258;28;65755;-32
2024/02/24 10:10:06;;;;;;;12.23;5.03;;;;;;;35.86;62.30;100888.25;5052807;28;70765;-35
2024/02/24 10:12:37;;;;;;;11.27;5.10;;;;;;;35.84;62.36;100891.25;5049929;28;66583;-35
2024/02/24 10:15:08;;;;;;;12.70;4.83;;;;;;;35.86;61.88;100883.66;5051684;28;68900;-32
2024/02/24 10:17:40;;;;;;;22.38;6.00;;;;;;;35.76;62.72;100878.06;5044772;28;65301;-34
2024/02/24 10:20:11;;;;;;;;;;;;;;;35.74;63.29;100902.03;5046253;28;71252;-34
2024/02/24 10:22:42;;;;;;;16.10;5.32;;;;;;;35.90;62.77;100903.06;5051436;28;66467;-34
2024/02/24 10:25:14;;;;;;;;;;;;;;;35.85;62.47;100909.28;5065248;28;69934;-34
2024/02/24 10:27:47;;;;;;;9.45;5.68;;;;;;;35.87;61.84;100909.84;5046470;28;65674;-34
2024/02/24 10:30:18;;;;;;;15.98;5.90;;;;;;;35.93;63.48;100911.56;5047241;28;70193;-34
2024/02/24 10:32:54;;;;;;;10.50;5.38;;;;;;;35.95;63.61;100903.13;5051815;28;66959;-34
2024/02/24 10:35:26;;;;;;;15.13;5.82;;;;;;;35.92;63.88;100915.38;5049146;28;69561;-35
2024/02/24 10:37:57;;;;;;;7.15;5.43;;;;;;;35.94;63.85;100917.84;5059114;28;66721;-35
2024/02/24 10:40:49;;;;;;;;;;;;;;;35.85;63.28;100914.72;5050585;28;70183;-35
2024/02/24 10:43:21;;;;;;;10.15;5.47;;;;;;;35.81;63.58;100902.69;5052994;28;66053;-35
2024/02/24 10:45:52;;;;;;;7.50;5.05;;;;;;;35.80;63.06;100915.50;5045439;28;71726;-35
2024/02/24 10:48:24;;;;;;;5.78;4.47;;;;;;;35.83;63.21;100921.53;5051039;28;66590;-35
2024/02/24 10:50:56;;;;;;;7.65;3.95;;;;;;;35.74;63.71;100918.41;5047667;28;70433;-34
2024/02/24 10:53:31;;;;;;;4.68;3.45;;;;;;;35.75;64.00;100917.34;5057334;28;66257;-35
2024/02/24 10:56:02;;;;;;;10.45;4.30;;;;;;;35.64;64.35;100923.75;5044566;28;69231;-34
2024/02/24 10:58:35;;;;;;;4.65;3.40;;;;;;;35.64;64.02;100923.75;5042836;28;65765;-35
2024/02/24 11:01:07;;;;;;;7.43;4.00;;;;;;;35.65;64.69;100937.13;5044002;28;70282;-35
2024/02/24 11:03:39;;;;;;;11.23;3.97;;;;;;;35.62;64.30;100936.81;5066887;28;66351;-34
2024/02/24 11:06:13;;;;;;;10.25;3.70;;;;;;;35.39;64.03;100905.91;5045750;28;70810;-36
2024/02/24 11:08:44;;;;;;;8.95;4.03;;;;;;;35.56;63.52;100938.66;5049440;28;65464;-35
2024/02/24 11:11:16;;;;;;;4.20;3.13;;;;;;;35.48;63.22;100939.03;5046497;28;69871;-34
2024/02/24 11:13:48;;;;;;;11.48;4.50;;;;;;;35.44;63.17;100941.44;5047628;28;66051;-35
2024/02/24 11:16:23;;;;;;;11.23;4.10;;;;;;;35.44;62.87;100940.59;5047653;28;70099;-35
2024/02/24 11:18:55;;;;;;;9.45;3.88;;;;;;;35.40;63.77;100951.19;5047995;28;66019;-34
2024/02/24 11:21:59;;;;;;;10.18;3.95;;;;;;;35.26;63.75;100955.34;5058296;28;69536;-34
2024/02/24 11:24:34;;;;;;;11.30;4.93;;;;;;;35.20;64.36;100940.81;5032597;28;66377;-35
2024/02/24 11:27:06;;;;;;;15.38;5.13;;;;;;;35.27;64.30;100957.84;5048305;28;69440;-36
2024/02/24 11:29:38;;;;;;;5.82;5.22;;;;;;;35.25;63.90;100965.44;5053731;28;65920;-33
2024/02/24 11:32:12;;;;;;;6.57;5.78;;;;;;;35.16;64.62;100963.34;5042786;28;70517;-35
2024/02/24 11:34:44;;;;;;;11.90;5.07;;;;;;;35.16;64.10;100966.94;5054356;28;66574;-34
2024/02/24 11:37:18;;;;;;;10.95;5.63;;;;;;;34.94;65.46;100942.25;5042278;28;69315;-34
2024/02/24 11:39:50;;;;;;;10.88;6.00;;;;;;;35.11;64.70;100970.38;5049314;28;65619;-36